sensor_id;sensor_type;location;lat;lon;timestamp;pressure;altitude;pressure_sealevel;temperature;humidity
77351;BME280;66420;50.246;14.320;2023-06-04T00:00:34;99968.47;;;8.84;63.94
77351;BME280;66420;50.246;14.320;2023-06-04T00:03:19;99969.63;;;8.78;64.46
77351;BME280;66420;50.246;14.320;2023-06-04T00:06:03;99963.69;;;8.71;64.00
77351;BME280;66420;50.246;14.320;2023-06-04T00:08:48;99958.94;;;8.82;64.05
77351;BME280;66420;50.246;14.320;2023-06-04T00:11:32;99950.84;;;8.72;63.87
77351;BME280;66420;50.246;14.320;2023-06-04T00:14:18;99952.28;;;8.64;63.33
77351;BME280;66420;50.246;14.320;2023-06-04T00:17:02;99953.28;;;8.44;64.85
77351;BME280;66420;50.246;14.320;2023-06-04T00:19:47;99949.44;;;8.45;65.22
77351;BME280;66420;50.246;14.320;2023-06-04T00:22:32;99950.38;;;8.31;65.07
77351;BME280;66420;50.246;14.320;2023-06-04T00:25:17;99952.63;;;8.19;66.14
77351;BME280;66420;50.246;14.320;2023-06-04T00:28:02;99943.34;;;8.20;65.60
77351;BME280;66420;50.246;14.320;2023-06-04T00:30:47;99953.09;;;8.26;65.70
77351;BME280;66420;50.246;14.320;2023-06-04T00:33:32;99954.69;;;8.37;64.71
77351;BME280;66420;50.246;14.320;2023-06-04T00:36:17;99952.00;;;8.27;65.05
77351;BME280;66420;50.246;14.320;2023-06-04T00:39:02;99954.25;;;8.20;65.92
77351;BME280;66420;50.246;14.320;2023-06-04T00:41:47;99949.66;;;8.15;65.69
77351;BME280;66420;50.246;14.320;2023-06-04T00:44:31;99940.31;;;8.21;65.31
77351;BME280;66420;50.246;14.320;2023-06-04T00:47:18;99942.06;;;8.07;66.49
77351;BME280;66420;50.246;14.320;2023-06-04T00:50:04;99943.63;;;8.18;65.70
77351;BME280;66420;50.246;14.320;2023-06-04T00:52:51;99943.88;;;8.22;65.03
77351;BME280;66420;50.246;14.320;2023-06-04T00:55:36;99942.06;;;8.07;65.59
77351;BME280;66420;50.246;14.320;2023-06-04T00:58:21;99943.41;;;8.10;65.37
77351;BME280;66420;50.246;14.320;2023-06-04T01:01:20;99936.78;;;8.21;65.27
77351;BME280;66420;50.246;14.320;2023-06-04T01:04:14;99937.66;;;8.11;66.52
77351;BME280;66420;50.246;14.320;2023-06-04T01:07:03;99932.50;;;8.10;65.75
77351;BME280;66420;50.246;14.320;2023-06-04T01:09:49;99930.25;;;8.17;65.65
77351;BME280;66420;50.246;14.320;2023-06-04T01:12:34;99932.00;;;8.02;65.61
77351;BME280;66420;50.246;14.320;2023-06-04T01:15:19;99927.09;;;8.05;65.86
77351;BME280;66420;50.246;14.320;2023-06-04T01:18:05;99931.41;;;8.11;65.69
77351;BME280;66420;50.246;14.320;2023-06-04T01:20:51;99925.97;;;8.11;65.26
77351;BME280;66420;50.246;14.320;2023-06-04T01:23:50;99930.16;;;7.93;65.92
77351;BME280;66420;50.246;14.320;2023-06-04T01:26:45;99923.53;;;8.04;65.66
77351;BME280;66420;50.246;14.320;2023-06-04T01:29:30;99919.53;;;7.96;66.45
77351;BME280;66420;50.246;14.320;2023-06-04T01:32:17;99922.69;;;8.09;65.78
77351;BME280;66420;50.246;14.320;2023-06-04T01:35:02;99916.25;;;7.94;66.14
77351;BME280;66420;50.246;14.320;2023-06-04T01:37:47;99924.78;;;7.83;66.61
77351;BME280;66420;50.246;14.320;2023-06-04T01:40:33;99929.41;;;7.82;66.44
77351;BME280;66420;50.246;14.320;2023-06-04T01:43:19;99921.84;;;7.74;66.46
77351;BME280;66420;50.246;14.320;2023-06-04T01:46:04;99924.59;;;7.69;66.87
77351;BME280;66420;50.246;14.320;2023-06-04T01:48:48;99924.94;;;7.52;67.66
77351;BME280;66420;50.246;14.320;2023-06-04T01:51:33;99930.56;;;7.66;66.69
77351;BME280;66420;50.246;14.320;2023-06-04T01:54:17;99925.13;;;7.66;66.29
77351;BME280;66420;50.246;14.320;2023-06-04T01:57:02;99925.09;;;7.71;66.74
77351;BME280;66420;50.246;14.320;2023-06-04T01:59:48;99920.69;;;7.80;65.57
77351;BME280;66420;50.246;14.320;2023-06-04T02:02:33;99924.59;;;7.69;66.41
77351;BME280;66420;50.246;14.320;2023-06-04T02:05:17;99920.72;;;7.75;67.07
77351;BME280;66420;50.246;14.320;2023-06-04T02:08:02;99929.06;;;7.45;67.79
77351;BME280;66420;50.246;14.320;2023-06-04T02:10:49;99926.88;;;7.47;67.43
77351;BME280;66420;50.246;14.320;2023-06-04T02:13:34;99924.47;;;7.30;67.78
77351;BME280;66420;50.246;14.320;2023-06-04T02:16:18;99924.56;;;7.05;68.70
77351;BME280;66420;50.246;14.320;2023-06-04T02:19:03;99925.69;;;6.89;69.89
77351;BME280;66420;50.246;14.320;2023-06-04T02:21:48;99924.28;;;7.06;68.96
77351;BME280;66420;50.246;14.320;2023-06-04T02:24:33;99924.84;;;6.98;68.91
77351;BME280;66420;50.246;14.320;2023-06-04T02:27:18;99924.25;;;7.22;68.12
77351;BME280;66420;50.246;14.320;2023-06-04T02:30:03;99921.53;;;7.11;68.25
77351;BME280;66420;50.246;14.320;2023-06-04T02:32:49;99927.50;;;7.24;67.92
77351;BME280;66420;50.246;14.320;2023-06-04T02:35:35;99936.53;;;7.09;68.40
77351;BME280;66420;50.246;14.320;2023-06-04T02:38:20;99935.75;;;6.98;68.89
77351;BME280;66420;50.246;14.320;2023-06-04T02:41:05;99933.59;;;6.90;68.98
77351;BME280;66420;50.246;14.320;2023-06-04T02:43:50;99934.69;;;6.79;69.06
77351;BME280;66420;50.246;14.320;2023-06-04T02:46:34;99933.59;;;6.80;69.46
77351;BME280;66420;50.246;14.320;2023-06-04T02:49:19;99933.06;;;6.73;69.69
77351;BME280;66420;50.246;14.320;2023-06-04T02:52:04;99931.44;;;6.82;69.14
77351;BME280;66420;50.246;14.320;2023-06-04T02:54:49;99931.44;;;6.72;69.65
77351;BME280;66420;50.246;14.320;2023-06-04T02:57:34;99939.59;;;6.72;69.60
77351;BME280;66420;50.246;14.320;2023-06-04T03:00:19;99935.53;;;6.54;69.84
77351;BME280;66420;50.246;14.320;2023-06-04T03:03:03;99940.16;;;6.64;70.23
77351;BME280;66420;50.246;14.320;2023-06-04T03:05:48;99949.41;;;6.63;69.88
77351;BME280;66420;50.246;14.320;2023-06-04T03:08:33;99947.75;;;6.57;70.33
77351;BME280;66420;50.246;14.320;2023-06-04T03:11:18;99958.13;;;6.50;70.57
77351;BME280;66420;50.246;14.320;2023-06-04T03:14:06;99966.25;;;6.50;70.48
77351;BME280;66420;50.246;14.320;2023-06-04T03:16:50;99969.50;;;6.52;70.02
77351;BME280;66420;50.246;14.320;2023-06-04T03:19:40;99974.94;;;6.47;70.93
77351;BME280;66420;50.246;14.320;2023-06-04T03:22:25;99968.97;;;6.50;70.22
77351;BME280;66420;50.246;14.320;2023-06-04T03:25:10;99974.13;;;6.46;70.26
77351;BME280;66420;50.246;14.320;2023-06-04T03:27:54;99985.28;;;6.45;70.07
77351;BME280;66420;50.246;14.320;2023-06-04T03:30:40;99976.03;;;6.51;70.11
77351;BME280;66420;50.246;14.320;2023-06-04T03:33:25;99982.03;;;6.53;69.73
77351;BME280;66420;50.246;14.320;2023-06-04T03:36:10;99983.66;;;6.64;69.69
77351;BME280;66420;50.246;14.320;2023-06-04T03:38:55;99982.84;;;6.63;69.58
77351;BME280;66420;50.246;14.320;2023-06-04T03:41:41;99973.31;;;6.81;68.67
77351;BME280;66420;50.246;14.320;2023-06-04T03:44:26;99982.84;;;6.74;69.19
77351;BME280;66420;50.246;14.320;2023-06-04T03:47:10;99980.41;;;6.82;68.83
77351;BME280;66420;50.246;14.320;2023-06-04T03:49:55;99991.81;;;6.74;69.16
77351;BME280;66420;50.246;14.320;2023-06-04T03:52:40;99986.38;;;6.74;69.18
77351;BME280;66420;50.246;14.320;2023-06-04T03:55:24;99985.84;;;6.77;68.92
77351;BME280;66420;50.246;14.320;2023-06-04T03:58:09;99986.91;;;6.76;69.23
77351;BME280;66420;50.246;14.320;2023-06-04T04:00:55;99986.09;;;6.76;69.57
77351;BME280;66420;50.246;14.320;2023-06-04T04:03:42;99975.22;;;6.86;69.16
77351;BME280;66420;50.246;14.320;2023-06-04T04:06:27;99973.06;;;6.83;69.28
77351;BME280;66420;50.246;14.320;2023-06-04T04:09:12;99975.47;;;6.89;69.24
77351;BME280;66420;50.246;14.320;2023-06-04T04:11:57;99973.56;;;7.00;68.24
77351;BME280;66420;50.246;14.320;2023-06-04T04:14:42;99983.34;;;7.06;68.57
77351;BME280;66420;50.246;14.320;2023-06-04T04:17:27;99980.84;;;7.20;68.27
77351;BME280;66420;50.246;14.320;2023-06-04T04:20:12;99981.97;;;7.24;68.43
77351;BME280;66420;50.246;14.320;2023-06-04T04:22:57;99981.41;;;7.27;67.68
77351;BME280;66420;50.246;14.320;2023-06-04T04:25:42;99978.31;;;7.48;67.03
77351;BME280;66420;50.246;14.320;2023-06-04T04:28:28;99988.38;;;7.58;66.81
77351;BME280;66420;50.246;14.320;2023-06-04T04:31:14;99977.44;;;7.63;66.49
77351;BME280;66420;50.246;14.320;2023-06-04T04:33:58;99985.34;;;7.70;66.42
77351;BME280;66420;50.246;14.320;2023-06-04T04:36:45;99984.53;;;7.69;66.96
77351;BME280;66420;50.246;14.320;2023-06-04T04:39:36;99979.84;;;7.75;66.57
77351;BME280;66420;50.246;14.320;2023-06-04T04:42:20;99981.72;;;7.79;66.30
77351;BME280;66420;50.246;14.320;2023-06-04T04:45:05;99982.84;;;7.78;66.74
77351;BME280;66420;50.246;14.320;2023-06-04T04:47:50;99989.25;;;7.97;66.17
77351;BME280;66420;50.246;14.320;2023-06-04T04:50:35;99993.50;;;8.19;65.46
77351;BME280;66420;50.246;14.320;2023-06-04T04:53:20;99991.97;;;8.52;64.39
77351;BME280;66420;50.246;14.320;2023-06-04T04:56:05;99995.53;;;8.47;65.19
77351;BME280;66420;50.246;14.320;2023-06-04T04:58:50;99995.44;;;8.57;63.86
77351;BME280;66420;50.246;14.320;2023-06-04T05:01:34;99988.28;;;8.66;63.36
77351;BME280;66420;50.246;14.320;2023-06-04T05:04:19;99991.56;;;8.68;63.83
77351;BME280;66420;50.246;14.320;2023-06-04T05:07:03;99999.63;;;8.83;63.07
77351;BME280;66420;50.246;14.320;2023-06-04T05:09:48;99994.78;;;9.04;63.40
77351;BME280;66420;50.246;14.320;2023-06-04T05:12:32;100002.06;;;9.14;63.17
77351;BME280;66420;50.246;14.320;2023-06-04T05:15:18;99993.84;;;9.14;63.31
77351;BME280;66420;50.246;14.320;2023-06-04T05:18:03;100003.19;;;9.37;63.60
77351;BME280;66420;50.246;14.320;2023-06-04T05:20:48;99997.84;;;9.50;64.18
77351;BME280;66420;50.246;14.320;2023-06-04T05:23:33;100004.22;;;9.64;62.70
77351;BME280;66420;50.246;14.320;2023-06-04T05:26:21;99998.38;;;9.76;62.55
77351;BME280;66420;50.246;14.320;2023-06-04T05:29:09;99993.56;;;9.87;62.57
77351;BME280;66420;50.246;14.320;2023-06-04T05:31:54;99996.69;;;9.99;61.00
77351;BME280;66420;50.246;14.320;2023-06-04T05:34:40;99998.34;;;10.18;61.66
77351;BME280;66420;50.246;14.320;2023-06-04T05:37:25;99991.78;;;10.38;60.49
77351;BME280;66420;50.246;14.320;2023-06-04T05:40:14;99999.84;;;10.48;59.93
77351;BME280;66420;50.246;14.320;2023-06-04T05:42:58;100002.44;;;10.58;60.35
77351;BME280;66420;50.246;14.320;2023-06-04T05:45:43;100000.44;;;10.78;60.02
77351;BME280;66420;50.246;14.320;2023-06-04T05:48:28;100004.94;;;10.87;59.58
77351;BME280;66420;50.246;14.320;2023-06-04T05:51:13;100013.72;;;11.03;59.33
77351;BME280;66420;50.246;14.320;2023-06-04T05:53:58;100010.72;;;11.18;58.36
77351;BME280;66420;50.246;14.320;2023-06-04T05:56:42;100016.81;;;11.29;58.16
77351;BME280;66420;50.246;14.320;2023-06-04T05:59:27;100006.06;;;11.46;57.68
77351;BME280;66420;50.246;14.320;2023-06-04T06:02:12;100000.81;;;11.63;57.47
77351;BME280;66420;50.246;14.320;2023-06-04T06:04:57;100000.84;;;11.77;55.66
77351;BME280;66420;50.246;14.320;2023-06-04T06:07:42;100006.81;;;11.92;54.64
77351;BME280;66420;50.246;14.320;2023-06-04T06:10:27;100014.63;;;11.99;54.62
77351;BME280;66420;50.246;14.320;2023-06-04T06:13:12;100002.44;;;12.05;54.26
77351;BME280;66420;50.246;14.320;2023-06-04T06:15:56;100008.28;;;12.26;53.32
77351;BME280;66420;50.246;14.320;2023-06-04T06:18:41;100019.03;;;12.36;53.04
77351;BME280;66420;50.246;14.320;2023-06-04T06:21:26;100014.88;;;12.61;53.00
77351;BME280;66420;50.246;14.320;2023-06-04T06:24:11;100007.66;;;12.87;51.62
77351;BME280;66420;50.246;14.320;2023-06-04T06:26:56;100011.00;;;13.06;50.13
77351;BME280;66420;50.246;14.320;2023-06-04T06:29:41;100012.44;;;13.04;50.60
77351;BME280;66420;50.246;14.320;2023-06-04T06:32:26;100017.47;;;13.24;49.40
77351;BME280;66420;50.246;14.320;2023-06-04T06:35:11;100031.34;;;13.50;48.71
77351;BME280;66420;50.246;14.320;2023-06-04T06:37:56;100030.63;;;13.75;46.24
77351;BME280;66420;50.246;14.320;2023-06-04T06:40:41;100031.66;;;13.88;47.29
77351;BME280;66420;50.246;14.320;2023-06-04T06:43:26;100027.31;;;14.04;47.21
77351;BME280;66420;50.246;14.320;2023-06-04T06:46:10;100033.63;;;13.96;45.48
77351;BME280;66420;50.246;14.320;2023-06-04T06:48:55;100025.72;;;14.11;46.63
77351;BME280;66420;50.246;14.320;2023-06-04T06:51:40;100038.41;;;14.30;46.88
77351;BME280;66420;50.246;14.320;2023-06-04T06:54:25;100035.34;;;14.40;45.49
77351;BME280;66420;50.246;14.320;2023-06-04T06:57:10;100032.94;;;14.47;46.35
77351;BME280;66420;50.246;14.320;2023-06-04T06:59:55;100039.09;;;14.61;46.20
77351;BME280;66420;50.246;14.320;2023-06-04T07:02:40;100036.81;;;14.54;44.87
77351;BME280;66420;50.246;14.320;2023-06-04T07:05:24;100028.09;;;14.61;45.39
77351;BME280;66420;50.246;14.320;2023-06-04T07:08:09;100030.97;;;14.99;43.31
77351;BME280;66420;50.246;14.320;2023-06-04T07:10:53;100037.75;;;15.19;42.54
77351;BME280;66420;50.246;14.320;2023-06-04T07:13:38;100036.28;;;15.30;44.23
77351;BME280;66420;50.246;14.320;2023-06-04T07:16:23;100039.47;;;15.40;44.24
77351;BME280;66420;50.246;14.320;2023-06-04T07:19:08;100038.06;;;15.26;42.74
77351;BME280;66420;50.246;14.320;2023-06-04T07:21:54;100025.84;;;15.52;44.48
77351;BME280;66420;50.246;14.320;2023-06-04T08:59:49;100027.03;;;19.83;37.61
77351;BME280;66420;50.246;14.320;2023-06-04T09:15:31;100013.97;;;20.34;31.98
77351;BME280;66420;50.246;14.320;2023-06-04T09:18:16;100015.19;;;20.52;33.79
77351;BME280;66420;50.246;14.320;2023-06-04T09:23:47;100009.00;;;19.92;32.83
77351;BME280;66420;50.246;14.320;2023-06-04T09:26:32;100011.88;;;20.47;31.14
77351;BME280;66420;50.246;14.320;2023-06-04T09:29:17;100016.41;;;20.55;32.56
77351;BME280;66420;50.246;14.320;2023-06-04T09:32:02;100018.56;;;20.61;31.82
77351;BME280;66420;50.246;14.320;2023-06-04T09:34:47;100015.28;;;20.94;31.91
77351;BME280;66420;50.246;14.320;2023-06-04T09:37:31;100015.97;;;21.10;33.14
77351;BME280;66420;50.246;14.320;2023-06-04T09:40:16;100020.47;;;21.15;32.68
77351;BME280;66420;50.246;14.320;2023-06-04T09:43:01;100009.47;;;21.03;32.35
77351;BME280;66420;50.246;14.320;2023-06-04T09:45:46;100019.50;;;21.07;32.04
77351;BME280;66420;50.246;14.320;2023-06-04T09:48:32;100021.28;;;21.15;34.13
77351;BME280;66420;50.246;14.320;2023-06-04T09:51:16;100000.84;;;20.89;32.81
77351;BME280;66420;50.246;14.320;2023-06-04T09:54:04;100009.97;;;21.08;32.90
77351;BME280;66420;50.246;14.320;2023-06-04T09:56:49;100003.00;;;21.37;31.92
77351;BME280;66420;50.246;14.320;2023-06-04T09:59:36;100013.34;;;21.59;30.97
77351;BME280;66420;50.246;14.320;2023-06-04T10:02:25;100009.44;;;21.64;32.36
77351;BME280;66420;50.246;14.320;2023-06-04T10:05:14;100007.09;;;21.66;31.89
77351;BME280;66420;50.246;14.320;2023-06-04T10:28:38;99994.13;;;21.77;30.48
77351;BME280;66420;50.246;14.320;2023-06-04T10:31:23;99991.16;;;22.12;31.34
77351;BME280;66420;50.246;14.320;2023-06-04T10:34:08;99992.22;;;22.30;31.49
77351;BME280;66420;50.246;14.320;2023-06-04T10:36:52;99984.84;;;22.19;30.89
77351;BME280;66420;50.246;14.320;2023-06-04T10:39:37;99976.28;;;22.61;30.81
77351;BME280;66420;50.246;14.320;2023-06-04T10:42:23;99986.13;;;22.51;31.95
77351;BME280;66420;50.246;14.320;2023-06-04T10:45:09;99981.50;;;22.62;32.44
77351;BME280;66420;50.246;14.320;2023-06-04T10:48:03;99981.38;;;22.55;30.82
77351;BME280;66420;50.246;14.320;2023-06-04T10:50:50;99968.81;;;22.68;31.07
77351;BME280;66420;50.246;14.320;2023-06-04T10:53:38;99968.94;;;22.75;29.68
77351;BME280;66420;50.246;14.320;2023-06-04T10:56:25;99965.03;;;22.83;30.29
77351;BME280;66420;50.246;14.320;2023-06-04T10:59:15;99973.16;;;22.95;31.39
77351;BME280;66420;50.246;14.320;2023-06-04T11:02:07;99965.59;;;22.96;29.09
77351;BME280;66420;50.246;14.320;2023-06-04T11:05:05;99969.25;;;23.04;29.66
77351;BME280;66420;50.246;14.320;2023-06-04T11:07:52;99966.34;;;22.93;32.06
77351;BME280;66420;50.246;14.320;2023-06-04T11:10:40;99967.41;;;22.81;32.35
77351;BME280;66420;50.246;14.320;2023-06-04T11:13:25;99971.88;;;23.23;30.21
77351;BME280;66420;50.246;14.320;2023-06-04T11:16:17;99964.13;;;22.72;28.81
77351;BME280;66420;50.246;14.320;2023-06-04T11:19:02;99960.38;;;22.94;29.81
77351;BME280;66420;50.246;14.320;2023-06-04T11:21:48;99958.94;;;23.08;30.50
77351;BME280;66420;50.246;14.320;2023-06-04T11:24:34;99964.06;;;23.02;28.98
77351;BME280;66420;50.246;14.320;2023-06-04T11:27:19;99959.03;;;22.81;29.65
77351;BME280;66420;50.246;14.320;2023-06-04T11:30:07;99943.19;;;22.92;27.17
77351;BME280;66420;50.246;14.320;2023-06-04T11:33:03;99960.44;;;23.02;27.76
77351;BME280;66420;50.246;14.320;2023-06-04T11:35:48;99958.34;;;22.02;27.13
77351;BME280;66420;50.246;14.320;2023-06-04T11:38:32;99966.56;;;22.18;31.58
77351;BME280;66420;50.246;14.320;2023-06-04T11:41:17;99962.75;;;22.92;31.33
77351;BME280;66420;50.246;14.320;2023-06-04T11:44:05;99962.75;;;22.92;27.54
77351;BME280;66420;50.246;14.320;2023-06-04T11:46:50;99966.91;;;22.46;27.39
77351;BME280;66420;50.246;14.320;2023-06-04T11:49:36;99955.44;;;22.21;27.11
77351;BME280;66420;50.246;14.320;2023-06-04T11:52:21;99960.88;;;22.40;27.73
77351;BME280;66420;50.246;14.320;2023-06-04T11:55:10;99960.13;;;22.73;26.39
77351;BME280;66420;50.246;14.320;2023-06-04T11:57:56;99954.78;;;23.31;27.79
77351;BME280;66420;50.246;14.320;2023-06-04T12:00:41;99955.78;;;23.13;28.59
77351;BME280;66420;50.246;14.320;2023-06-04T12:03:37;99944.84;;;23.37;27.95
77351;BME280;66420;50.246;14.320;2023-06-04T12:06:22;99946.19;;;24.02;26.96
77351;BME280;66420;50.246;14.320;2023-06-04T12:09:07;99940.56;;;23.95;25.14
77351;BME280;66420;50.246;14.320;2023-06-04T12:12:06;99944.44;;;23.79;25.48
77351;BME280;66420;50.246;14.320;2023-06-04T12:14:57;99940.94;;;23.90;27.54
77351;BME280;66420;50.246;14.320;2023-06-04T12:17:53;99941.31;;;23.88;28.76
77351;BME280;66420;50.246;14.320;2023-06-04T12:20:39;99943.38;;;24.02;26.40
77351;BME280;66420;50.246;14.320;2023-06-04T12:23:26;99946.72;;;23.63;23.88
77351;BME280;66420;50.246;14.320;2023-06-04T12:26:23;99943.38;;;22.73;24.64
77351;BME280;66420;50.246;14.320;2023-06-04T12:29:14;99934.31;;;23.20;26.38
77351;BME280;66420;50.246;14.320;2023-06-04T12:32:04;99939.53;;;23.62;26.89
77351;BME280;66420;50.246;14.320;2023-06-04T12:34:49;99932.75;;;24.18;28.05
77351;BME280;66420;50.246;14.320;2023-06-04T12:37:34;99927.91;;;24.15;27.05
77351;BME280;66420;50.246;14.320;2023-06-04T12:40:18;99925.38;;;23.92;26.79
77351;BME280;66420;50.246;14.320;2023-06-04T12:43:05;99920.13;;;23.36;27.14
77351;BME280;66420;50.246;14.320;2023-06-04T12:45:49;99925.22;;;23.71;26.60
77351;BME280;66420;50.246;14.320;2023-06-04T12:48:34;99923.00;;;23.98;25.96
77351;BME280;66420;50.246;14.320;2023-06-04T12:51:20;99919.84;;;24.06;27.68
77351;BME280;66420;50.246;14.320;2023-06-04T12:54:05;99918.28;;;24.09;26.26
77351;BME280;66420;50.246;14.320;2023-06-04T12:56:50;99918.47;;;23.75;26.56
77351;BME280;66420;50.246;14.320;2023-06-04T12:59:35;99920.38;;;23.64;24.54
77351;BME280;66420;50.246;14.320;2023-06-04T13:02:20;99924.09;;;23.35;23.79
77351;BME280;66420;50.246;14.320;2023-06-04T13:05:05;99916.09;;;23.33;24.73
77351;BME280;66420;50.246;14.320;2023-06-04T13:07:50;99909.78;;;23.40;24.46
77351;BME280;66420;50.246;14.320;2023-06-04T13:10:36;99903.38;;;23.39;23.93
77351;BME280;66420;50.246;14.320;2023-06-04T13:13:21;99910.88;;;23.72;25.84
77351;BME280;66420;50.246;14.320;2023-06-04T13:16:07;99902.81;;;24.29;26.57
77351;BME280;66420;50.246;14.320;2023-06-04T13:18:52;99902.22;;;23.92;25.30
77351;BME280;66420;50.246;14.320;2023-06-04T13:21:36;99891.75;;;23.78;23.38
77351;BME280;66420;50.246;14.320;2023-06-04T13:24:21;99892.22;;;23.43;23.65
77351;BME280;66420;50.246;14.320;2023-06-04T13:27:06;99895.53;;;23.52;25.20
77351;BME280;66420;50.246;14.320;2023-06-04T13:29:51;99891.28;;;23.72;25.65
77351;BME280;66420;50.246;14.320;2023-06-04T13:32:36;99889.94;;;24.14;25.44
77351;BME280;66420;50.246;14.320;2023-06-04T13:35:21;99889.41;;;23.36;25.95
77351;BME280;66420;50.246;14.320;2023-06-04T13:38:06;99888.78;;;23.13;26.02
77351;BME280;66420;50.246;14.320;2023-06-04T13:40:50;99883.00;;;23.87;24.05
77351;BME280;66420;50.246;14.320;2023-06-04T13:43:36;99877.53;;;24.11;24.59
77351;BME280;66420;50.246;14.320;2023-06-04T13:46:20;99881.41;;;23.85;26.82
77351;BME280;66420;50.246;14.320;2023-06-04T13:49:05;99883.22;;;24.22;25.79
77351;BME280;66420;50.246;14.320;2023-06-04T13:51:50;99886.66;;;23.98;23.51
77351;BME280;66420;50.246;14.320;2023-06-04T13:54:35;99878.94;;;23.73;22.08
77351;BME280;66420;50.246;14.320;2023-06-04T13:57:20;99879.66;;;23.67;25.49
77351;BME280;66420;50.246;14.320;2023-06-04T14:00:05;99874.25;;;23.95;28.49
77351;BME280;66420;50.246;14.320;2023-06-04T14:02:51;99870.19;;;23.82;24.65
77351;BME280;66420;50.246;14.320;2023-06-04T14:05:36;99874.25;;;23.92;26.56
77351;BME280;66420;50.246;14.320;2023-06-04T14:08:22;99879.75;;;23.74;23.88
77351;BME280;66420;50.246;14.320;2023-06-04T14:11:07;99868.59;;;23.81;25.60
77351;BME280;66420;50.246;14.320;2023-06-04T14:13:52;99865.22;;;23.54;23.30
77351;BME280;66420;50.246;14.320;2023-06-04T14:16:36;99860.00;;;23.53;26.87
77351;BME280;66420;50.246;14.320;2023-06-04T14:19:21;99862.16;;;23.73;25.78
77351;BME280;66420;50.246;14.320;2023-06-04T14:22:06;99857.03;;;23.82;26.33
77351;BME280;66420;50.246;14.320;2023-06-04T14:24:50;99858.13;;;23.71;24.97
77351;BME280;66420;50.246;14.320;2023-06-04T14:27:35;99856.72;;;23.43;25.48
77351;BME280;66420;50.246;14.320;2023-06-04T14:30:20;99856.16;;;23.24;25.00
77351;BME280;66420;50.246;14.320;2023-06-04T14:33:05;99853.84;;;23.33;26.93
77351;BME280;66420;50.246;14.320;2023-06-04T14:35:50;99849.34;;;23.18;24.79
77351;BME280;66420;50.246;14.320;2023-06-04T14:38:34;99848.84;;;23.05;24.28
77351;BME280;66420;50.246;14.320;2023-06-04T14:41:18;99843.25;;;23.05;24.46
77351;BME280;66420;50.246;14.320;2023-06-04T14:44:03;99845.25;;;23.05;24.28
77351;BME280;66420;50.246;14.320;2023-06-04T14:46:49;99847.03;;;23.30;25.11
77351;BME280;66420;50.246;14.320;2023-06-04T14:49:35;99844.56;;;23.18;25.61
77351;BME280;66420;50.246;14.320;2023-06-04T14:52:21;99846.03;;;23.49;27.73
77351;BME280;66420;50.246;14.320;2023-06-04T14:55:06;99847.09;;;23.37;24.58
77351;BME280;66420;50.246;14.320;2023-06-04T14:57:51;99846.19;;;23.23;25.86
77351;BME280;66420;50.246;14.320;2023-06-04T15:00:35;99843.34;;;23.19;23.56
77351;BME280;66420;50.246;14.320;2023-06-04T15:03:20;99839.97;;;22.96;24.10
77351;BME280;66420;50.246;14.320;2023-06-04T15:06:05;99838.53;;;23.16;27.25
77351;BME280;66420;50.246;14.320;2023-06-04T15:08:49;99838.91;;;23.11;26.27
77351;BME280;66420;50.246;14.320;2023-06-04T15:11:34;99833.66;;;23.06;24.57
77351;BME280;66420;50.246;14.320;2023-06-04T15:14:19;99835.31;;;23.11;29.27
77351;BME280;66420;50.246;14.320;2023-06-04T15:17:04;99835.97;;;23.41;26.55
77351;BME280;66420;50.246;14.320;2023-06-04T15:19:49;99822.44;;;22.95;25.18
77351;BME280;66420;50.246;14.320;2023-06-04T15:22:33;99827.94;;;22.88;25.99
77351;BME280;66420;50.246;14.320;2023-06-04T15:25:18;99837.09;;;22.85;25.05
77351;BME280;66420;50.246;14.320;2023-06-04T15:28:03;99830.41;;;22.97;29.84
77351;BME280;66420;50.246;14.320;2023-06-04T15:30:48;99839.94;;;22.92;25.34
77351;BME280;66420;50.246;14.320;2023-06-04T15:33:33;99831.59;;;22.96;27.82
77351;BME280;66420;50.246;14.320;2023-06-04T15:36:17;99828.41;;;22.97;27.95
77351;BME280;66420;50.246;14.320;2023-06-04T15:39:02;99828.63;;;22.78;26.91
77351;BME280;66420;50.246;14.320;2023-06-04T15:41:47;99830.41;;;22.60;26.38
77351;BME280;66420;50.246;14.320;2023-06-04T15:44:31;99821.69;;;22.65;28.84
77351;BME280;66420;50.246;14.320;2023-06-04T15:47:16;99819.06;;;22.79;30.08
77351;BME280;66420;50.246;14.320;2023-06-04T15:50:00;99815.09;;;22.80;26.62
77351;BME280;66420;50.246;14.320;2023-06-04T15:52:45;99820.19;;;22.71;25.95
77351;BME280;66420;50.246;14.320;2023-06-04T15:55:30;99820.28;;;22.45;25.95
77351;BME280;66420;50.246;14.320;2023-06-04T15:58:14;99814.41;;;22.53;26.77
77351;BME280;66420;50.246;14.320;2023-06-04T16:00:59;99815.13;;;22.47;27.07
77351;BME280;66420;50.246;14.320;2023-06-04T16:03:44;99811.47;;;22.39;25.73
77351;BME280;66420;50.246;14.320;2023-06-04T16:06:28;99820.19;;;22.38;26.26
77351;BME280;66420;50.246;14.320;2023-06-04T16:09:13;99817.25;;;22.24;25.64
77351;BME280;66420;50.246;14.320;2023-06-04T16:11:58;99817.47;;;22.08;26.60
77351;BME280;66420;50.246;14.320;2023-06-04T16:14:42;99819.22;;;22.23;27.58
77351;BME280;66420;50.246;14.320;2023-06-04T16:17:27;99818.72;;;22.14;26.35
77351;BME280;66420;50.246;14.320;2023-06-04T16:20:12;99811.97;;;22.15;26.54
77351;BME280;66420;50.246;14.320;2023-06-04T16:22:58;99817.88;;;22.10;26.93
77351;BME280;66420;50.246;14.320;2023-06-04T16:25:43;99819.97;;;22.17;27.90
77351;BME280;66420;50.246;14.320;2023-06-04T16:28:28;99809.44;;;22.03;27.75
77351;BME280;66420;50.246;14.320;2023-06-04T16:31:13;99812.19;;;21.99;27.28
77351;BME280;66420;50.246;14.320;2023-06-04T16:33:58;99813.31;;;21.95;27.38
77351;BME280;66420;50.246;14.320;2023-06-04T16:36:42;99810.91;;;21.93;27.44
77351;BME280;66420;50.246;14.320;2023-06-04T16:39:27;99815.59;;;21.89;28.91